PANN

Details ICAO PANN
Name NENANA MUNI
Region USA (Alaska)
Timezone America/Anchorage (UTC-9.0)
Plans Departing 1
Arriving 3
Stats Elevation 362 ft / 110 m (AMSL)
Location 64.548078° -149.075687°
Runways 2
Magnetic Variation 17.044° E
Sunrise 2017-12-13 19:50:46 UTC / 2017-12-13 10:50:46 Local
Sunset 2017-12-13 23:53:27 UTC / 2017-12-13 14:53:27 Local
Advertisement - Login to hide

Runways

ID Width Length Bearing (true) Bearing (mag) Surface Threshold Offset Overrun Length
04L 100 ft / 30 m 4,585 ft / 1,397 m 58.89° 41.85° Asphalt 0 ft / 0 m 0 ft / 0 m
04R 60 ft / 18 m 2,512 ft / 766 m 58.89° 41.85° Grass 0 ft / 0 m 0 ft / 0 m
22L 60 ft / 18 m 2,512 ft / 766 m 238.91° 221.87° Grass 0 ft / 0 m 0 ft / 0 m
22R 100 ft / 30 m 4,585 ft / 1,397 m 238.92° 221.88° Asphalt 0 ft / 0 m 0 ft / 0 m

Map

Weather


0- 5 10 15 20 25 30 35+ Temperature / ° C

Clouds and Precipitation
Forecast for 2017-12-14 00:00 UTC. Updated an hour ago

Ground ~20,000 ft ~40,000 ft Winds

METAR

PANN 132153Z AUTO 10017G22KT 10SM CLR 04/M05 A2944 RMK AO2 PK WND 08028/2116 SLP978 T00391050 TSNO

TAF

Not found

Frequencies

Recorded 125.20 MHz ASOS
Approach 125.35 MHz FAIRBANKS APP/DEP
Unicom 122.10 MHz CTAF
Warning: Do not use this data for real-world aviation or navigation. No guarantee of current accuracy is given.